Strona główna
METAR-TAF:

METAR-TAF

Lotnisko :

Odate-Noshiro, Japonia

Szerokość geograficzna: 40-11N, Długość geograficzna: 140-12E, wysokość: 84 m

Aktualna obserwacja pogody

Raport powstał 18 minut temu, godzina 04:00 UTC
Wiatr 9 kt od zachód, zmienny między południowo-południowy zachód i zachód
Temperatura 26°C
Wilgotność 42%
Ciśnienie 1003 hPa
Widzialność 10 km lub więcej
Brak chmur poniżej 1500 m i brak chmur cumulonimbus

METAR: RJSR 230400Z 26009KT 210V280 CAVOK 26/12 Q1003

czas: 13:18 (04:18 UTC)


TAF: brakujący

Obserwacja i prognoza pogody dla ponad 4000 lotnisk (raport METAR i TAF).

Dostępne stacje oznaczono żółtymi i czerwonymi punktami na mapie.

Najedź kursorem aby zobaczyć nazwę stacji.

Kliknij aby zobaczyć obserwacje i prognozy pogody.

Aby zmienić mapę: kliknij na zielony przycisk z czarnym krzyżykiem, aby powiększyć; na zielony przycisk z myślnikiem, aby pomniejszyć; na zielone strzałki, aby przejść do map sąsiednich.


METAR-TAF: